Time;durP1;ratioP1;P1;durP2;ratioP2;P2;SDS_P1;SDS_P2;PMS_P1;PMS_P2;Temp;Humidity;BMP_temperature;BMP_pressure;BME280_temperature;BME280_humidity;BME280_pressure;Samples;Min_cycle;Max_cycle;Signal;HPM_P1;HPM_P2
2023/01/13 00:00:30;;;;;;;1.40;0.40;;;;;;;12.09;100.00;96175.31;5025225;28;20084;-48
2023/01/13 00:02:58;;;;;;;3.50;0.60;;;;;;;12.32;100.00;96166.78;5027359;28;20073;-48
2023/01/13 00:05:27;;;;;;;2.75;0.40;;;;;;;12.18;100.00;96168.22;5027024;28;20083;-49
2023/01/13 00:07:56;;;;;;;1.88;0.45;;;;;;;12.40;100.00;96158.84;5027062;28;20081;-52
2023/01/13 00:10:24;;;;;;;2.75;0.40;;;;;;;12.78;100.00;96153.91;5024479;28;20078;-49
2023/01/13 00:12:53;;;;;;;1.17;0.70;;;;;;;12.58;100.00;96148.94;5026128;28;20104;-54
2023/01/13 00:15:21;;;;;;;1.15;0.50;;;;;;;12.46;100.00;96144.97;5025138;28;20130;-48
2023/01/13 00:17:49;;;;;;;1.55;0.55;;;;;;;12.68;99.58;96140.03;5024741;28;20244;-47
2023/01/13 00:20:18;;;;;;;4.47;0.52;;;;;;;12.53;99.27;96137.22;5027719;28;20061;-53
2023/01/13 00:22:46;;;;;;;2.05;0.70;;;;;;;12.66;97.25;96136.69;5025576;28;20100;-49
2023/01/13 00:25:16;;;;;;;0.70;0.40;;;;;;;12.98;94.29;96138.53;5031992;28;20104;-50
2023/01/13 00:27:44;;;;;;;3.22;0.95;;;;;;;12.91;93.56;96137.53;5030268;28;20069;-50
2023/01/13 00:30:13;;;;;;;4.22;0.70;;;;;;;13.03;92.18;96142.31;5028166;28;20077;-50
2023/01/13 00:32:41;;;;;;;3.15;0.50;;;;;;;13.27;90.90;96141.47;5025643;28;20077;-52
2023/01/13 00:35:09;;;;;;;1.55;0.40;;;;;;;13.31;91.20;96136.66;5027915;28;20082;-52
2023/01/13 00:37:38;;;;;;;0.80;0.50;;;;;;;13.37;84.57;96132.50;5027185;28;20088;-47
2023/01/13 00:40:07;;;;;;;2.35;0.50;;;;;;;13.11;91.42;96125.59;5024434;28;20088;-47
2023/01/13 00:45:23;;;;;;;1.02;0.50;;;;;;;13.11;90.58;96122.94;5023454;28;20085;-51
2023/01/13 00:47:51;;;;;;;1.15;0.50;;;;;;;13.26;86.36;96116.00;5028544;28;20537;-51
2023/01/13 00:50:19;;;;;;;1.13;0.40;;;;;;;13.48;85.25;96118.91;5026144;28;20089;-52
2023/01/13 00:52:47;;;;;;;1.05;0.28;;;;;;;13.04;91.60;96120.16;5022664;28;20572;-52
2023/01/13 00:55:16;;;;;;;1.45;0.50;;;;;;;12.98;90.69;96117.34;5022082;28;20545;-50
2023/01/13 00:57:45;;;;;;;2.15;0.57;;;;;;;12.63;97.64;96115.88;5030077;28;20092;-51
2023/01/13 01:00:14;;;;;;;0.70;0.40;;;;;;;12.83;92.97;96112.75;5023410;28;20073;-51
2023/01/13 01:02:43;;;;;;;0.45;0.30;;;;;;;12.67;95.15;96112.75;5027993;28;20092;-49
2023/01/13 01:05:11;;;;;;;3.60;0.50;;;;;;;12.65;95.89;96109.41;5025830;28;20107;-50
2023/01/13 01:07:40;;;;;;;1.15;0.50;;;;;;;13.03;88.83;96112.38;5029885;28;20084;-51
2023/01/13 01:10:09;;;;;;;0.70;0.52;;;;;;;12.59;97.33;96115.38;5032719;28;20172;-50
2023/01/13 01:12:37;;;;;;;3.40;0.43;;;;;;;13.13;91.39;96115.66;5027074;28;20084;-51
2023/01/13 01:15:08;;;;;;;1.15;0.60;;;;;;;12.80;95.32;96118.34;5030981;28;20077;-52
2023/01/13 01:17:37;;;;;;;2.75;0.40;;;;;;;13.13;89.16;96126.25;5036128;28;20068;-48
2023/01/13 01:20:06;;;;;;;1.05;0.50;;;;;;;12.86;94.84;96130.09;5031259;28;20081;-49
2023/01/13 01:22:34;;;;;;;1.95;0.40;;;;;;;12.98;94.85;96122.66;5029007;28;20088;-47
2023/01/13 01:25:02;;;;;;;1.90;0.45;;;;;;;12.90;92.43;96107.56;5024443;28;20116;-52
2023/01/13 01:27:30;;;;;;;3.20;0.70;;;;;;;13.15;88.99;96110.22;5027776;28;20083;-51
2023/01/13 01:29:59;;;;;;;2.20;0.50;;;;;;;13.30;88.50;96101.41;5022620;28;20073;-51
2023/01/13 01:32:28;;;;;;;1.75;0.52;;;;;;;13.59;84.13;96102.63;5026692;28;20081;-51
2023/01/13 01:34:56;;;;;;;1.33;0.38;;;;;;;13.07;91.76;96092.50;5023366;28;20085;-50
2023/01/13 01:37:25;;;;;;;3.22;0.40;;;;;;;12.96;90.72;96092.84;5028497;28;20081;-49
2023/01/13 01:39:53;;;;;;;1.48;0.40;;;;;;;13.18;90.02;96093.94;5027629;28;20096;-52
2023/01/13 01:45:15;;;;;;;1.17;0.50;;;;;;;13.51;86.93;96084.94;5029841;28;20081;-53
2023/01/13 01:47:46;;;;;;;1.70;0.47;;;;;;;13.17;84.13;96089.66;5027426;28;20092;-53
2023/01/13 01:50:14;;;;;;;;;;;;;;;13.62;81.88;96085.56;5030768;28;20073;-54
2023/01/13 01:52:44;;;;;;;1.50;0.50;;;;;;;13.25;86.50;96081.75;5028698;28;19960;-50
2023/01/13 01:55:14;;;;;;;1.40;0.50;;;;;;;13.63;79.89;96077.44;5025655;28;20096;-53
2023/01/13 01:57:46;;;;;;;2.42;0.38;;;;;;;13.63;79.95;96072.16;5027265;28;20093;-53
2023/01/13 02:00:15;;;;;;;1.65;0.70;;;;;;;13.70;78.94;96081.06;5031175;28;20168;-50
2023/01/13 02:02:46;;;;;;;2.28;0.73;;;;;;;13.18;82.64;96072.78;5026622;28;20544;-50
2023/01/13 02:05:15;;;;;;;1.85;0.47;;;;;;;13.49;82.11;96073.72;5028157;28;20088;-52
2023/01/13 02:07:46;;;;;;;0.80;0.30;;;;;;;13.40;80.47;96065.97;5026677;28;20433;-48
2023/01/13 02:10:15;;;;;;;;;;;;;;;13.43;80.95;96070.91;5029340;28;20081;-53
2023/01/13 02:12:45;;;;;;;0.63;0.40;;;;;;;13.75;79.20;96067.28;5028976;28;19921;-52
2023/01/13 02:15:15;;;;;;;1.45;0.30;;;;;;;13.87;76.45;96062.44;5028951;28;20490;-50
2023/01/13 02:17:54;;;;;;;;;;;;;;;13.54;76.89;96062.59;5027325;28;20080;-51
2023/01/13 02:20:38;;;;;;;2.05;0.50;;;;;;;13.51;77.89;96062.91;5027932;28;19967;-49
2023/01/13 02:26:48;;;;;;;1.25;0.40;;;;;;;14.11;72.61;96054.31;5024358;28;20077;-47
2023/01/13 02:32:20;;;;;;;1.45;0.40;;;;;;;13.71;73.80;96053.56;5028191;28;20077;-50
2023/01/13 02:34:55;;;;;;;0.55;0.35;;;;;;;13.65;75.13;96053.41;5029129;28;20095;-50
2023/01/13 02:37:28;;;;;;;0.80;0.40;;;;;;;14.16;69.81;96048.47;5024277;28;20088;-53
2023/01/13 02:39:59;;;;;;;1.98;0.40;;;;;;;14.04;70.70;96045.41;5026960;28;20068;-53
2023/01/13 02:45:23;;;;;;;1.73;0.50;;;;;;;13.70;71.92;96045.78;5027523;28;20108;-50
2023/01/13 02:47:54;;;;;;;1.50;0.30;;;;;;;13.95;69.34;96038.50;5027103;28;20083;-52
2023/01/13 02:50:25;;;;;;;0.30;0.30;;;;;;;13.67;73.65;96033.72;5027534;28;20073;-53
2023/01/13 02:52:57;;;;;;;1.80;0.85;;;;;;;13.82;72.59;96031.13;5026863;28;20081;-51
2023/01/13 02:55:29;;;;;;;3.70;0.40;;;;;;;13.97;70.17;96026.72;5024350;28;20081;-49
2023/01/13 02:57:58;;;;;;;2.63;0.40;;;;;;;14.12;69.58;96033.91;5025792;28;20081;-49
2023/01/13 03:00:28;;;;;;;1.50;0.45;;;;;;;14.09;69.73;96036.91;5027949;28;20081;-50
2023/01/13 03:02:56;;;;;;;1.17;0.40;;;;;;;13.73;72.07;96033.00;5027571;28;20103;-51
2023/01/13 03:05:25;;;;;;;1.05;0.40;;;;;;;13.83;69.51;96035.41;5030702;28;20076;-51
2023/01/13 03:08:04;;;;;;;1.30;0.50;;;;;;;13.74;70.26;96026.72;5024398;28;20080;-49
2023/01/13 03:10:51;;;;;;;0.60;0.40;;;;;;;13.73;68.90;96026.91;5027365;28;20077;-49
2023/01/13 03:13:53;;;;;;;1.33;0.52;;;;;;;13.99;67.84;96029.19;5025931;28;20692;-47
2023/01/13 03:16:29;;;;;;;0.45;0.20;;;;;;;13.77;66.72;96020.25;5024135;28;20087;-46
2023/01/13 03:19:09;;;;;;;0.90;0.30;;;;;;;13.97;66.67;96018.78;5027536;28;20076;-53
2023/01/13 03:21:40;;;;;;;1.35;0.55;;;;;;;13.37;69.82;96023.94;5028581;28;20077;-48
2023/01/13 03:24:13;;;;;;;0.60;0.25;;;;;;;13.80;66.80;96016.38;5028035;28;20096;-50
2023/01/13 03:26:45;;;;;;;1.30;0.43;;;;;;;14.03;65.83;96006.63;5027806;28;20076;-49
2023/01/13 03:29:19;;;;;;;1.27;0.50;;;;;;;14.15;66.63;96015.81;5023961;28;20088;-52
2023/01/13 03:31:55;;;;;;;0.90;0.40;;;;;;;14.03;65.07;96019.88;5027863;28;20084;-48
2023/01/13 03:34:27;;;;;;;0.30;0.28;;;;;;;14.54;60.77;95995.47;5026223;28;20081;-50
2023/01/13 03:37:02;;;;;;;1.77;0.40;;;;;;;14.21;62.20;95995.72;5026018;28;20081;-51
2023/01/13 03:39:34;;;;;;;2.03;0.40;;;;;;;14.54;61.95;96001.59;5026328;28;20081;-52
2023/01/13 03:42:05;;;;;;;1.55;0.60;;;;;;;14.14;62.59;96008.03;5024922;28;20080;-50
2023/01/13 03:44:35;;;;;;;2.13;0.80;;;;;;;14.56;61.72;96006.72;5026698;28;20139;-52
2023/01/13 03:47:10;;;;;;;1.67;0.70;;;;;;;14.35;61.82;96002.91;5024888;28;20081;-51
2023/01/13 03:49:42;;;;;;;0.68;0.40;;;;;;;14.39;63.33;96000.72;5024863;28;20085;-51
2023/01/13 03:52:13;;;;;;;1.23;0.35;;;;;;;14.45;60.68;95998.19;5023669;28;20088;-47
2023/01/13 03:54:46;;;;;;;0.30;0.30;;;;;;;14.28;60.46;96004.63;5028970;28;20091;-48
2023/01/13 03:57:15;;;;;;;1.42;0.40;;;;;;;14.39;61.70;95993.56;5024294;28;20100;-52
2023/01/13 03:59:48;;;;;;;0.57;0.40;;;;;;;14.31;60.55;95990.16;5024644;28;20081;-51
2023/01/13 04:02:22;;;;;;;0.63;0.43;;;;;;;14.03;62.63;95996.03;5024931;28;20069;-55
2023/01/13 04:04:54;;;;;;;1.83;0.30;;;;;;;14.48;62.91;95989.00;5027713;28;20081;-49
2023/01/13 04:07:29;;;;;;;1.42;0.30;;;;;;;14.15;61.26;95999.09;5025372;28;20081;-50
2023/01/13 04:09:59;;;;;;;0.65;0.30;;;;;;;14.21;60.50;95988.59;5026128;28;20089;-52
2023/01/13 04:12:59;;;;;;;1.30;0.20;;;;;;;14.33;58.93;95983.69;5028131;28;20658;-49
2023/01/13 04:15:23;;;;;;;1.77;0.32;;;;;;;14.37;59.41;95982.31;5026530;28;20081;-49
2023/01/13 04:17:53;;;;;;;0.85;0.40;;;;;;;14.39;58.98;95984.81;5027353;28;20513;-50
2023/01/13 04:20:21;;;;;;;2.15;0.50;;;;;;;14.66;57.02;95973.63;5026549;28;20575;-50
2023/01/13 04:22:50;;;;;;;2.83;0.55;;;;;;;14.37;58.08;95977.00;5032247;28;20085;-50
2023/01/13 04:25:18;;;;;;;0.45;0.30;;;;;;;14.19;59.81;95989.78;5022616;28;20121;-54
2023/01/13 04:27:46;;;;;;;0.98;0.32;;;;;;;13.98;59.18;95983.31;5026959;28;20081;-50
2023/01/13 04:30:15;;;;;;;1.10;0.40;;;;;;;14.37;58.40;95982.31;5024918;28;20088;-52
2023/01/13 04:32:43;;;;;;;0.47;0.30;;;;;;;14.53;56.32;95991.16;5029707;28;20544;-51
2023/01/13 04:35:13;;;;;;;1.33;0.30;;;;;;;14.36;57.47;95985.16;5026469;28;20081;-48
2023/01/13 04:37:41;;;;;;;0.90;0.30;;;;;;;14.35;57.18;95976.38;5025731;28;20100;-51
2023/01/13 04:40:10;;;;;;;0.60;0.30;;;;;;;14.15;56.73;95980.53;5032171;28;20095;-51
2023/01/13 04:42:39;;;;;;;0.88;0.30;;;;;;;14.32;57.33;95984.69;5031109;28;20080;-49
2023/01/13 04:45:09;;;;;;;1.30;0.30;;;;;;;14.11;57.14;95980.06;5029063;28;20183;-51
2023/01/13 04:47:37;;;;;;;0.68;0.40;;;;;;;14.28;56.41;95974.59;5027749;28;20089;-51
2023/01/13 04:50:06;;;;;;;1.05;0.35;;;;;;;14.67;55.39;95969.13;5027285;28;20088;-52
2023/01/13 04:52:36;;;;;;;2.05;0.40;;;;;;;14.21;55.68;95978.00;5026110;28;21167;-52
2023/01/13 04:55:05;;;;;;;0.90;0.30;;;;;;;14.55;54.92;95970.56;5030644;28;20757;-48
2023/01/13 04:57:34;;;;;;;1.35;0.40;;;;;;;15.01;53.07;95970.41;5028055;28;20091;-53
2023/01/13 05:00:02;;;;;;;0.40;0.20;;;;;;;14.53;54.36;95973.41;5024833;28;20641;-48
2023/01/13 05:02:30;;;;;;;0.98;0.28;;;;;;;14.94;54.15;95973.81;5030573;28;20084;-50
2023/01/13 05:04:59;;;;;;;0.75;0.20;;;;;;;15.18;52.61;95971.88;5027297;28;20092;-52
2023/01/13 05:07:28;;;;;;;0.38;0.28;;;;;;;14.75;54.81;95976.19;5028447;28;20203;-53
2023/01/13 05:09:58;;;;;;;2.53;0.38;;;;;;;14.53;56.07;95981.38;5024058;28;20693;-55
2023/01/13 05:18:00;;;;;;;0.28;0.28;;;;;;;14.84;59.21;95983.88;5029061;28;20100;-49
2023/01/13 05:20:28;;;;;;;1.38;0.40;;;;;;;15.20;58.75;95978.63;5034010;28;20084;-52
2023/01/13 05:25:44;;;;;;;0.73;0.30;;;;;;;14.77;57.31;95974.19;5030033;28;20076;-56
2023/01/13 05:28:12;;;;;;;1.40;0.40;;;;;;;14.60;60.57;95970.88;5024913;28;20546;-52
2023/01/13 05:30:42;;;;;;;0.43;0.20;;;;;;;15.24;57.32;95976.41;5029258;28;20092;-50
2023/01/13 05:33:11;;;;;;;1.30;0.45;;;;;;;14.70;57.20;95971.44;5029434;28;20065;-47
2023/01/13 05:35:40;;;;;;;0.50;0.30;;;;;;;14.33;58.09;95973.06;5023859;28;20479;-51
2023/01/13 05:38:08;;;;;;;0.70;0.22;;;;;;;14.83;56.08;95960.16;5028760;28;20107;-49
2023/01/13 05:43:27;;;;;;;1.02;0.30;;;;;;;14.80;56.75;95969.31;5028725;28;20073;-49
2023/01/13 05:45:58;;;;;;;1.15;0.30;;;;;;;14.52;58.38;95970.94;5024984;28;20068;-53
2023/01/13 05:48:28;;;;;;;0.85;0.30;;;;;;;14.19;57.55;95979.16;5030608;28;20085;-51
2023/01/13 05:50:57;;;;;;;1.30;0.40;;;;;;;14.41;59.79;95978.28;5024649;28;20069;-51
2023/01/13 05:53:25;;;;;;;0.40;0.28;;;;;;;14.69;58.92;95967.94;5024251;28;20115;-53
2023/01/13 05:55:54;;;;;;;0.30;0.20;;;;;;;14.47;58.85;95972.28;5026546;28;20085;-49
2023/01/13 05:58:24;;;;;;;0.63;0.38;;;;;;;14.43;58.98;95968.34;5025650;28;20096;-54
2023/01/13 06:00:59;;;;;;;2.25;0.20;;;;;;;14.63;58.91;95967.84;5027860;28;20084;-48
2023/01/13 06:03:28;;;;;;;1.77;0.40;;;;;;;14.95;57.39;95962.16;5028688;28;20103;-50
2023/01/13 06:05:58;;;;;;;0.47;0.30;;;;;;;14.47;58.51;95968.78;5029929;28;20089;-49
2023/01/13 06:08:26;;;;;;;0.52;0.40;;;;;;;14.55;59.75;95973.22;5025807;28;20095;-53
2023/01/13 06:10:55;;;;;;;0.30;0.20;;;;;;;14.26;59.65;95972.16;5028101;28;20520;-55
2023/01/13 06:13:24;;;;;;;0.40;0.22;;;;;;;14.85;61.02;95960.81;5024080;28;20103;-51
2023/01/13 06:15:57;;;;;;;0.28;0.28;;;;;;;14.83;58.81;95968.13;5025606;28;20167;-49
2023/01/13 06:18:26;;;;;;;0.43;0.30;;;;;;;14.39;60.89;95972.34;5024894;28;20088;-47
2023/01/13 06:20:55;;;;;;;2.67;0.30;;;;;;;14.20;60.24;95976.31;5028142;28;20060;-49
2023/01/13 06:23:23;;;;;;;0.68;0.35;;;;;;;14.71;59.96;95973.88;5027771;28;20480;-53
2023/01/13 06:25:56;;;;;;;1.58;0.40;;;;;;;14.45;59.28;95968.13;5031269;28;20072;-53
2023/01/13 06:28:24;;;;;;;0.65;0.30;;;;;;;14.47;60.08;95971.44;5026924;28;20081;-56
2023/01/13 06:30:57;;;;;;;1.20;0.47;;;;;;;14.85;59.75;95969.59;5030949;28;20600;-50
2023/01/13 06:33:28;;;;;;;0.80;0.40;;;;;;;14.86;59.07;95968.56;5024630;28;20077;-54
2023/01/13 06:35:59;;;;;;;0.82;0.30;;;;;;;14.80;57.73;95974.63;5025876;28;20072;-52
2023/01/13 06:38:28;;;;;;;1.08;0.30;;;;;;;14.25;60.55;95978.47;5024266;28;20584;-52
2023/01/13 06:40:57;;;;;;;0.25;0.22;;;;;;;14.64;60.51;95958.88;5026910;28;20033;-52
2023/01/13 06:43:24;;;;;;;1.13;0.20;;;;;;;14.38;66.54;95960.09;5027823;28;20077;-53
2023/01/13 06:45:54;;;;;;;0.65;0.30;;;;;;;14.13;67.55;95967.44;5027309;28;20085;-51
2023/01/13 06:48:26;;;;;;;0.52;0.30;;;;;;;14.20;71.19;95978.97;5025343;28;20084;-51
2023/01/13 06:50:55;;;;;;;1.95;0.20;;;;;;;14.22;72.76;95981.47;5025236;28;20073;-51
2023/01/13 06:53:23;;;;;;;0.17;0.17;;;;;;;13.89;74.56;95984.38;5025608;28;20069;-54
2023/01/13 06:55:51;;;;;;;1.23;0.40;;;;;;;14.39;74.80;95990.94;5027741;28;20084;-50
2023/01/13 06:58:19;;;;;;;0.93;0.30;;;;;;;14.06;78.63;95986.91;5025966;28;20548;-49
2023/01/13 07:00:50;;;;;;;0.25;0.25;;;;;;;13.75;83.94;95985.13;5025378;28;20519;-51
2023/01/13 07:03:18;;;;;;;;;;;;;;;13.70;89.16;95990.97;5019486;28;20147;-51
2023/01/13 07:05:53;;;;;;;0.65;0.20;;;;;;;13.82;90.15;95994.03;5023236;28;19956;-47
2023/01/13 07:08:22;;;;;;;3.45;0.45;;;;;;;14.02;90.22;95989.91;5025906;28;20533;-50
2023/01/13 07:10:51;;;;;;;0.40;0.40;;;;;;;13.70;91.78;95987.50;5031269;28;20087;-48
2023/01/13 07:16:07;;;;;;;1.40;0.25;;;;;;;14.05;88.44;95983.44;5027333;28;20099;-49
2023/01/13 07:18:36;;;;;;;0.47;0.30;;;;;;;13.79;92.40;95989.06;5027189;28;20525;-51
2023/01/13 07:21:07;;;;;;;0.43;0.30;;;;;;;13.86;95.94;95995.31;5025775;28;20512;-51
2023/01/13 07:23:37;;;;;;;1.48;0.40;;;;;;;14.06;90.98;95992.19;5027535;28;20085;-52
2023/01/13 07:26:06;;;;;;;0.43;0.32;;;;;;;13.65;94.38;95981.88;5024656;28;20084;-49
2023/01/13 07:28:35;;;;;;;0.82;0.40;;;;;;;13.80;94.94;95979.28;5026093;28;20085;-47
2023/01/13 07:31:03;;;;;;;3.50;0.40;;;;;;;14.02;93.02;95979.28;5024811;28;20148;-48
2023/01/13 07:33:32;;;;;;;0.98;0.35;;;;;;;13.75;100.00;95983.28;5025153;28;20104;-49
2023/01/13 07:36:02;;;;;;;0.20;0.20;;;;;;;13.69;92.64;95984.00;5026444;28;20455;-48
2023/01/13 07:38:32;;;;;;;0.73;0.20;;;;;;;13.83;96.02;95984.25;5025245;28;20082;-52
2023/01/13 07:43:30;;;;;;;1.05;0.50;;;;;;;13.68;89.80;95985.00;5028348;28;20096;-49
2023/01/13 07:43:50;;;;;;;0.70;0.38;;;;;;;13.76;90.88;95974.38;5024720;28;20073;-48
2023/01/13 07:46:19;;;;;;;0.40;0.30;;;;;;;13.81;86.94;95968.53;5025338;28;20081;-51
2023/01/13 07:48:47;;;;;;;0.60;0.32;;;;;;;13.75;85.81;95974.53;5026204;28;20098;-54
2023/01/13 07:51:16;;;;;;;0.70;0.40;;;;;;;14.02;81.48;95981.94;5023396;28;20073;-51
2023/01/13 07:53:46;;;;;;;3.22;0.90;;;;;;;14.09;81.44;95981.25;5027760;28;20093;-52
2023/01/13 07:56:14;;;;;;;1.03;0.40;;;;;;;13.92;84.26;95981.34;5025778;28;20088;-47
2023/01/13 07:58:43;;;;;;;2.33;0.40;;;;;;;14.15;82.49;95976.06;5026082;28;20418;-51
2023/01/13 08:01:15;;;;;;;0.20;0.20;;;;;;;14.02;82.29;95997.03;5025121;28;20084;-51
2023/01/13 08:03:44;;;;;;;0.32;0.20;;;;;;;14.11;76.78;95982.72;5021984;28;20092;-50
2023/01/13 08:06:12;;;;;;;0.90;0.40;;;;;;;14.07;75.69;95989.34;5024860;28;20329;-47
2023/01/13 08:08:40;;;;;;;0.73;0.40;;;;;;;13.97;74.99;95991.41;5026372;28;20616;-49
2023/01/13 08:11:10;;;;;;;1.27;0.30;;;;;;;14.35;72.34;95992.28;5024493;28;20470;-51
2023/01/13 08:13:38;;;;;;;0.93;0.40;;;;;;;13.85;74.38;95998.16;5024623;28;20076;-48
2023/01/13 08:16:08;;;;;;;0.68;0.40;;;;;;;14.02;76.80;95997.84;5025986;28;20076;-48
2023/01/13 08:18:37;;;;;;;0.30;0.30;;;;;;;14.32;75.05;95989.19;5021151;28;20081;-46
2023/01/13 08:21:07;;;;;;;0.55;0.30;;;;;;;14.35;74.54;95989.66;5022629;28;20081;-46
2023/01/13 08:23:36;;;;;;;0.50;0.40;;;;;;;14.48;70.52;95983.69;5018081;28;20477;-48
2023/01/13 08:26:06;;;;;;;0.52;0.40;;;;;;;14.41;74.69;95985.44;5019489;28;20517;-52
2023/01/13 08:28:36;;;;;;;2.35;0.50;;;;;;;15.06;71.21;95982.13;5028876;28;20090;-51
2023/01/13 08:31:06;;;;;;;0.70;0.20;;;;;;;14.33;74.02;95985.50;5025138;28;20117;-46
2023/01/13 08:33:34;;;;;;;0.82;0.30;;;;;;;14.14;75.14;95986.81;5026541;28;20092;-49
2023/01/13 08:36:05;;;;;;;0.30;0.20;;;;;;;14.60;72.99;95982.31;5022434;28;20128;-54
2023/01/13 08:38:37;;;;;;;3.58;0.40;;;;;;;14.73;73.45;95984.34;5024026;28;20599;-49
2023/01/13 08:41:09;;;;;;;0.98;0.25;;;;;;;14.65;76.44;95965.81;5026225;28;20077;-49
2023/01/13 08:43:39;;;;;;;0.80;0.30;;;;;;;14.38;76.72;95997.25;5027355;28;20084;-50
2023/01/13 08:46:07;;;;;;;0.32;0.30;;;;;;;14.78;75.31;95992.56;5025734;28;20732;-53
2023/01/13 08:48:36;;;;;;;0.10;0.10;;;;;;;14.95;77.29;96006.47;5021523;28;20077;-51
2023/01/13 08:51:05;;;;;;;0.25;0.20;;;;;;;14.78;77.40;95991.75;5023888;28;20085;-51
2023/01/13 08:53:34;;;;;;;0.50;0.30;;;;;;;14.28;81.00;95991.38;5025818;28;20088;-49
2023/01/13 08:56:07;;;;;;;0.63;0.25;;;;;;;14.64;79.48;96007.47;5022168;28;20104;-52
2023/01/13 08:58:35;;;;;;;1.45;0.20;;;;;;;14.61;74.82;96007.00;5024279;28;20077;-47
2023/01/13 09:01:07;;;;;;;0.20;0.20;;;;;;;14.51;81.10;96011.75;5022250;28;20084;-49
2023/01/13 09:03:35;;;;;;;2.20;0.65;;;;;;;14.44;79.53;96007.13;5022995;28;20099;-51
2023/01/13 09:06:04;;;;;;;1.27;0.35;;;;;;;14.93;76.09;96011.13;5026762;28;20070;-52
2023/01/13 09:08:33;;;;;;;0.43;0.30;;;;;;;14.96;78.69;96003.63;5021901;28;20095;-50
2023/01/13 09:13:10;;;;;;;0.28;0.28;;;;;;;14.75;77.93;95998.22;5018540;28;20077;-54
2023/01/13 09:13:48;;;;;;;0.55;0.20;;;;;;;14.69;75.51;95999.81;5025715;28;20077;-49
2023/01/13 09:16:18;;;;;;;1.73;0.28;;;;;;;14.72;77.93;95999.41;5017647;28;20077;-53
2023/01/13 09:18:46;;;;;;;3.17;0.87;;;;;;;15.01;71.00;95995.13;5023975;28;20088;-52
2023/01/13 09:21:15;;;;;;;0.40;0.30;;;;;;;14.93;70.32;96011.13;5024749;28;20860;-50
2023/01/13 09:23:43;;;;;;;1.38;0.30;;;;;;;14.80;70.45;96005.66;5023180;28;20092;-47
2023/01/13 09:26:12;;;;;;;0.52;0.30;;;;;;;14.90;73.82;96024.78;5031180;28;20493;-49
2023/01/13 09:28:41;;;;;;;0.40;0.30;;;;;;;14.53;71.81;96007.91;5030535;28;20092;-48
2023/01/13 09:31:09;;;;;;;0.40;0.38;;;;;;;14.96;71.80;96010.78;5026519;28;20089;-48
2023/01/13 09:36:25;;;;;;;0.77;0.40;;;;;;;14.88;74.36;96024.16;5031489;28;20077;-47
2023/01/13 09:38:53;;;;;;;1.08;0.20;;;;;;;14.70;73.26;96004.09;5026748;28;20089;-50
2023/01/13 09:44:14;;;;;;;0.40;0.40;;;;;;;14.95;75.59;96023.22;5025584;28;20084;-48
2023/01/13 09:46:46;;;;;;;1.00;0.40;;;;;;;14.76;71.47;96028.25;5024764;28;20081;-50
2023/01/13 09:49:19;;;;;;;0.20;0.20;;;;;;;15.04;67.80;96025.81;5029820;28;20088;-48
2023/01/13 09:51:52;;;;;;;0.47;0.35;;;;;;;14.96;68.53;96003.63;5025990;28;20458;-52
2023/01/13 09:54:30;;;;;;;0.52;0.30;;;;;;;15.48;66.72;96009.81;5026224;28;20081;-52
2023/01/13 09:56:59;;;;;;;0.73;0.30;;;;;;;15.66;69.56;96009.47;5026715;28;20077;-50
2023/01/13 09:59:29;;;;;;;1.35;0.30;;;;;;;15.09;67.71;95997.69;5024779;28;20081;-52
2023/01/13 10:02:02;;;;;;;0.20;0.20;;;;;;;15.26;68.83;96002.81;5025925;28;20081;-49
2023/01/13 10:04:32;;;;;;;0.20;0.20;;;;;;;15.14;66.97;96021.03;5024748;28;20087;-52
2023/01/13 10:07:03;;;;;;;0.50;0.30;;;;;;;15.23;70.45;96016.47;5027533;28;20076;-48
2023/01/13 10:09:34;;;;;;;0.40;0.30;;;;;;;15.06;69.91;95999.88;5024874;28;20084;-50
2023/01/13 10:14:51;;;;;;;1.42;0.30;;;;;;;15.25;66.70;95990.53;5028781;28;19971;-49
2023/01/13 10:17:26;;;;;;;0.40;0.20;;;;;;;15.48;68.20;95985.91;5024582;28;20643;-49
2023/01/13 10:20:01;;;;;;;0.70;0.50;;;;;;;15.30;63.08;95988.16;5026464;28;20073;-51
2023/01/13 10:22:50;;;;;;;2.17;0.22;;;;;;;15.01;67.92;96002.28;5026117;28;20498;-50
2023/01/13 10:25:40;;;;;;;2.20;0.75;;;;;;;15.39;67.22;95995.81;5024322;28;20092;-48
2023/01/13 10:28:10;;;;;;;0.10;0.10;;;;;;;15.38;65.65;95993.34;5026677;28;20088;-52
2023/01/13 10:30:41;;;;;;;0.40;0.30;;;;;;;15.40;64.21;95986.03;5024655;28;20088;-49
2023/01/13 10:33:11;;;;;;;0.20;0.20;;;;;;;15.34;66.94;95971.63;5021724;28;20515;-55
2023/01/13 10:35:58;;;;;;;0.98;0.20;;;;;;;15.31;65.10;95973.84;5027217;28;20084;-50
2023/01/13 10:38:30;;;;;;;0.35;0.28;;;;;;;15.98;65.54;95983.41;5027136;28;20081;-50
2023/01/13 10:40:59;;;;;;;0.75;0.30;;;;;;;15.89;65.69;95977.38;5027986;28;20076;-50
2023/01/13 10:43:29;;;;;;;4.63;0.20;;;;;;;15.85;68.02;95974.28;5025228;28;20081;-50
2023/01/13 10:46:01;;;;;;;0.10;0.10;;;;;;;16.02;68.89;95964.22;5024013;28;20528;-54
2023/01/13 10:48:40;;;;;;;0.22;0.20;;;;;;;15.83;66.61;95956.88;5024846;28;20089;-49
2023/01/13 10:51:20;;;;;;;1.27;0.57;;;;;;;15.57;68.13;95944.09;5023644;28;20061;-51
2023/01/13 10:53:58;;;;;;;0.13;0.13;;;;;;;15.83;70.43;95930.31;5038542;28;20080;-47
2023/01/13 10:56:28;;;;;;;0.20;0.20;;;;;;;15.87;73.60;95950.16;5022031;28;20069;-46
2023/01/13 10:59:14;;;;;;;0.22;0.20;;;;;;;15.90;71.32;95955.94;5027810;28;20458;-47
2023/01/13 11:01:44;;;;;;;0.88;0.25;;;;;;;15.40;81.57;95954.13;5016202;28;20096;-49
2023/01/13 11:04:26;;;;;;;0.70;0.20;;;;;;;15.93;76.02;95928.13;5027801;28;20104;-50
2023/01/13 11:06:56;;;;;;;0.10;0.10;;;;;;;16.06;83.16;95932.72;5027197;28;20484;-50
2023/01/13 11:09:26;;;;;;;0.50;0.20;;;;;;;15.96;81.45;95948.19;5033924;28;20081;-53
2023/01/13 11:11:55;;;;;;;0.40;0.22;;;;;;;16.07;79.31;95921.06;5026547;28;20545;-48
2023/01/13 11:14:35;;;;;;;0.30;0.20;;;;;;;15.52;75.65;95928.72;5023769;28;20077;-48
2023/01/13 11:17:09;;;;;;;0.30;0.10;;;;;;;16.03;76.99;95925.94;5020586;28;20788;-48
2023/01/13 11:19:43;;;;;;;0.65;0.17;;;;;;;16.14;73.68;95916.66;5026735;28;20736;-47
2023/01/13 11:22:17;;;;;;;1.38;0.30;;;;;;;16.04;71.01;95919.66;5025879;28;20069;-49
2023/01/13 11:24:50;;;;;;;0.25;0.20;;;;;;;15.93;72.84;95916.66;5024827;28;20108;-51
2023/01/13 11:27:21;;;;;;;0.30;0.25;;;;;;;16.07;70.56;95899.78;5023355;28;20473;-48
2023/01/13 11:29:59;;;;;;;0.20;0.20;;;;;;;16.05;71.31;95917.81;5026369;28;20088;-50
2023/01/13 11:32:30;;;;;;;0.63;0.22;;;;;;;16.26;74.69;95920.41;5020321;28;20076;-48
2023/01/13 11:35:01;;;;;;;0.28;0.20;;;;;;;15.93;79.78;95921.97;5028849;28;20069;-49
2023/01/13 11:37:33;;;;;;;0.40;0.15;;;;;;;16.09;78.51;95916.41;5023922;28;20065;-49
2023/01/13 11:40:05;;;;;;;1.48;0.30;;;;;;;15.64;81.78;95905.13;5025917;28;20095;-49
2023/01/13 11:42:38;;;;;;;0.20;0.20;;;;;;;15.80;80.70;95922.69;5024812;28;20084;-50
2023/01/13 11:45:16;;;;;;;0.20;0.20;;;;;;;16.11;80.78;95927.69;5022581;28;20105;-51
2023/01/13 11:47:46;;;;;;;0.75;0.20;;;;;;;16.30;78.17;95929.66;5020328;28;20482;-54
2023/01/13 11:50:18;;;;;;;0.30;0.30;;;;;;;15.54;86.25;95923.22;5023920;28;20072;-49
2023/01/13 11:53:05;;;;;;;0.40;0.20;;;;;;;15.50;86.52;95925.44;5025041;28;20132;-47
2023/01/13 11:55:41;;;;;;;0.38;0.20;;;;;;;15.34;88.04;95931.78;5023486;28;20088;-51
2023/01/13 11:58:34;;;;;;;1.52;0.20;;;;;;;15.40;87.29;95912.44;5025449;28;20084;-50
2023/01/13 12:01:29;;;;;;;1.48;0.40;;;;;;;15.52;94.70;95927.88;5027839;28;20085;-49
2023/01/13 12:04:12;;;;;;;0.30;0.20;;;;;;;15.82;90.59;95920.66;5016335;28;20533;-47
2023/01/13 12:06:42;;;;;;;0.65;0.38;;;;;;;15.50;86.54;95925.44;5024721;28;20480;-51
2023/01/13 12:09:29;;;;;;;0.35;0.30;;;;;;;15.57;86.43;95934.28;5024565;28;20091;-51
2023/01/13 12:12:19;;;;;;;0.20;0.20;;;;;;;15.38;85.81;95916.28;5020396;28;20478;-53
2023/01/13 12:15:02;;;;;;;0.20;0.20;;;;;;;15.11;86.30;95913.34;5025864;28;20709;-50
2023/01/13 12:17:34;;;;;;;1.33;0.28;;;;;;;15.71;86.00;95916.66;5024723;28;20081;-53
2023/01/13 12:20:16;;;;;;;3.08;0.40;;;;;;;15.64;86.10;95876.72;5020832;28;20530;-55
2023/01/13 12:22:46;;;;;;;1.10;0.52;;;;;;;16.18;89.11;95923.22;5023983;28;20096;-48
2023/01/13 12:25:20;;;;;;;0.43;0.30;;;;;;;16.07;84.80;95919.25;5019581;28;20629;-49
2023/01/13 12:27:52;;;;;;;0.40;0.20;;;;;;;15.79;88.93;95936.97;5023429;28;20093;-48
2023/01/13 12:30:24;;;;;;;0.28;0.28;;;;;;;15.79;88.43;95929.81;5024885;28;20081;-53